• Join FlightAware (Why Join?)
  • Login
  • US Flag 
06:20AM EST


 

Airport Tracker/Info


-or-


 

Live Flight TrackerFlight Track Log ✈ SKW4473 ✈ 30-Apr-2013 ✈ KHLN - KSLC

Flight Track Log - Related Links

Times and Time Zones

All times are in EDT time to prevent confusion due to time zone crossing. See the SKW4473 flight status page for this flight to view local times or setup timezone preferences in your user account.

Time Position Orientation Groundspeed Altitude Reporting Facility
EDT Latitude Longitude Course Direction KTS MPH feet Rate Location/Type
03:06PM 46.1151 -111.4818 145° Southeast  Level FlightAware Approximate
03:07PM 46.0337 -111.4003 145° Southeast  Level FlightAware Approximate
03:07PM 46.6303 -112.0467 146° Southeast 271 312 14,400  Level Salt Lake Center
03:08PM 45.9523 -111.3189 145° Southeast  Level FlightAware Approximate
03:08PM 46.5717 -111.9775 141° Southeast 288 331 16,900  Level Salt Lake Center
03:09PM 45.8709 -111.2375 145° Southeast  Level FlightAware Approximate
03:09PM 46.4742 -111.9803 181° South 291 335 19,300  Level Salt Lake Center
03:10PM 45.7896 -111.1562 145° Southeast  Level FlightAware Approximate
03:10PM 46.3908 -111.9783 179° South 298 343 21,100  Level Salt Lake Center
03:11PM 45.6967 -111.1903 204° Southwest  Level FlightAware Approximate
03:11PM 46.3061 -111.9792 180° South 303 349 22,600  Level Salt Lake Center
03:12PM 46.2189 -111.9792 180° South 312 359 24,100 1,320 Climbing Salt Lake Center
03:13PM 46.1306 -111.9800 180° South 317 365 25,400 1,140 Climbing Salt Lake Center
03:14PM 46.0394 -111.9819 181° South 326 375 26,500 1,020 Climbing Salt Lake Center
03:15PM 45.9472 -111.9811 180° South 330 380 27,600 1,020 Climbing Salt Lake Center
03:16PM 45.8350 -111.9825 180° South 335 386 28,600 900 Climbing Salt Lake Center
03:17PM 45.7408 -111.9831 180° South 339 390 29,500 720 Climbing Salt Lake Center
03:18PM 45.6450 -111.9819 180° South 345 397 30,200 600 Climbing Salt Lake Center
03:19PM 45.5467 -111.9833 181° South 352 405 30,800 360 Climbing Salt Lake Center
03:20PM 45.4458 -111.9844 180° South 361 415 31,000 60 Climbing Salt Lake Center
03:21PM 45.3444 -111.9847 180° South 365 420 31,000  Level Salt Lake Center
03:22PM 45.2433 -111.9850 180° South 365 420 31,000  Level Salt Lake Center
03:23PM 45.1239 -111.9847 180° South 359 413 31,000  Level Salt Lake Center
03:24PM 45.0322 -111.9867 181° South 359 413 31,000  Level Salt Lake Center
03:25PM 44.9219 -111.9869 180° South 357 411 31,000  Level Salt Lake Center
03:26PM 44.8267 -111.9878 180° South 359 413 31,000  Level Salt Lake Center
03:27PM 44.7136 -111.9903 181° South 364 419 31,000  Level Salt Lake Center
03:28PM 44.6156 -111.9908 180° South 369 425 31,000  Level Salt Lake Center
03:29PM 44.5017 -111.9908 180° South 369 425 31,000  Level Salt Lake Center
03:30PM 44.4022 -111.9911 180° South 373 429 31,000  Level Salt Lake Center
03:32PM 44.2872 -111.9919 180° South 372 428 31,000  Level Salt Lake Center
03:33PM 44.1911 -111.9947 181° South 366 421 31,000  Level Salt Lake Center
03:34PM 44.0792 -111.9953 180° South 362 417 31,000  Level Salt Lake Center
03:35PM 43.9817 -111.9953 180° South 367 422 31,000  Level Salt Lake Center
03:36PM 43.8872 -111.9967 181° South 358 412 31,000  Level Salt Lake Center
03:37PM 43.7750 -111.9972 180° South 359 413 31,000  Level Salt Lake Center
03:38PM 43.6803 -111.9953 179° South 356 410 31,000  Level Salt Lake Center
03:39PM 43.5697 -111.9958 180° South 356 410 31,000  Level Salt Lake Center
03:40PM 43.4744 -111.9975 181° South 357 411 31,000  Level Salt Lake Center
03:41PM 43.3639 -111.9983 180° South 357 411 31,000  Level Salt Lake Center
03:42PM 43.2700 -111.9994 180° South 354 407 31,000  Level Salt Lake Center
03:43PM 43.1753 -112.0000 180° South 355 409 31,000  Level Salt Lake Center
03:44PM 43.0819 -111.9061 144° Southeast 429 494 31,000  Level Salt Lake Center
03:45PM 43.0325 -111.7600 115° Southeast 443 510 31,000  Level Salt Lake Center
03:46PM 42.9794 -111.5844 112° Southeast 448 516 31,100  Climbing Salt Lake Center
03:47PM 42.9147 -111.4633 126° Southeast 421 484 31,000 -540 Descending Salt Lake Center
03:48PM 42.8186 -111.4883 191° South 316 364 30,100 -540 Descending Salt Lake Center
03:49PM 42.7389 -111.5281 200° South 317 365 30,000 -60 Descending Salt Lake Center
03:50PM 42.6511 -111.5744 201° Southwest 324 373 30,000  Level Salt Lake Center
03:51PM 42.5653 -111.6167 200° South 328 377 30,000  Level Salt Lake Center
03:52PM 42.4819 -111.6600 201° Southwest 323 372 30,000  Level Salt Lake Center
03:53PM 42.4014 -111.7017 201° Southwest 313 360 30,000 -300 Level Salt Lake Center
03:54PM 42.3178 -111.7431 200° South 318 366 29,400 -1,080 Descending Salt Lake Center
03:55PM 42.2317 -111.7858 200° South 328 377 27,900 -1,800 Descending Salt Lake Center
03:56PM 42.1311 -111.8375 201° Southwest 324 373 25,800 -1,920 Descending Salt Lake Center
03:57PM 42.0458 -111.8822 201° Southwest 328 377 24,000 -1,800 Descending Salt Lake Center
03:58PM 41.9608 -111.9264 201° Southwest 328 377 22,200 -1,800 Descending Salt Lake Center
03:59PM 41.8747 -111.9683 200° South 329 379 20,400 -1,620 Descending Salt Lake Center
04:00PM 41.7906 -112.0092 200° South 326 375 19,000 -720 Descending Salt Lake Center
04:01PM 41.6997 -112.0247 187° South 331 381 19,000 -60 Level Salt Lake Center
04:02PM 41.6053 -112.0394 187° South 341 392 18,900 -480 Descending Salt Lake Center
04:03PM 41.5114 -112.0544 187° South 340 391 18,100 -1,380 Descending Salt Lake Center
04:04PM 41.4061 -112.0758 189° South 321 369 16,200 -1,740 Descending Salt Lake Center
04:05PM 41.3092 -112.0953 189° South 330 380 14,400 -1,740 Descending Salt Lake Center
04:06PM 41.2314 -112.1139 190° South 309 356 12,700 -1,740 Descending Salt Lake Center
04:07PM 41.1436 -112.1322 189° South 321 369 11,100 -840 Descending Salt Lake Center
04:08PM 41.0536 -112.1419 185° South 330 380 11,000  Descending Salt Lake Center
04:09PM 40.9694 -112.1239 171° South 309 356 11,100  Climbing Salt Lake Center
04:10PM 40.8811 -112.1072 172° South 265 305 11,000 -60 Descending Salt Lake Center
04:11PM 40.8128 -112.0989 175° South 248 285 11,000  Level Salt Lake Center
04:12PM 40.7475 -112.0908 175° South 236 272 11,000 -540 Level Salt Lake Center
04:13PM 40.6869 -112.0844 175° South 222 255 9,900 -1,020 Descending Salt Lake Center
04:15PM 40.6269 -112.0775 175° South 218 251 9,000 -540 Descending Salt Lake Center
04:16PM 40.5667 -112.0669 172° South 219 252 8,800 -420 Descending Salt Lake Center
04:16PM 40.5633 -111.9911 93° East 224 258 8,200 -600 Descending Salt Lake Center
04:18PM 40.6167 -111.9758 12° North 195 224 7,600 -660 Descending Salt Lake Center
04:19PM 40.6622 -111.9836 353° North 169 194 6,800 -780 Descending Salt Lake Center